Terminal Aerodrome Forecast
Issued by NWS Wilmington, OH

Home | Current Version | Previous Version | Text Only | Print | Product List | Glossary On
Versions: 1 2 3 4 5 6 7 8 9 10 11 12 13 14 15 16 17 18 19 20 21 22 23 24 25 26 27 28
000
FTUS41 KILN 201743
TAFCVG
TAF
KCVG 201743Z 2018/2124 26005KT P6SM SCT040
     FM210100 VRB03KT P6SM FEW050
     FM211000 08004KT 4SM BR SCT040 BKN200
     FM211300 14004KT P6SM SCT040 BKN200
     FM212000 17006KT P6SM VCTS BKN050CB=

USA.gov is the U.S. government's official web portal to all federal, state and local government web resources and services.